Terminal Aerodrome Forecast
Issued by NWS Melbourne, FL

Home | Current Version | Previous Version | Text Only | Print | Product List | Glossary On
Versions: 1 2 3 4 5 6 7 8 9 10 11 12 13 14 15 16 17 18 19 20 21 22
000
FTUS42 KMLB 010538
TAFVRB
TAF
KVRB 010538Z 0106/0206 08011KT P6SM VCSH BKN020 OVC100
     FM011000 09009KT P6SM SCT008 BKN015
     FM011800 11012KT P6SM BKN035 PROB30 0118/0121 5SM SHRA BKN025
     FM020000 06003KT P6SM SCT020 BKN080=

USA.gov is the U.S. government's official web portal to all federal, state and local government web resources and services.